sensor_id;sensor_type;location;lat;lon;timestamp;pressure;altitude;pressure_sealevel;temperature;humidity
41596;BME280;27283;52.504;13.358;2023-01-31T00:00:20;100950.88;;;4.36;68.16
41596;BME280;27283;52.504;13.358;2023-01-31T00:03:29;100950.88;;;4.48;67.92
41596;BME280;27283;52.504;13.358;2023-01-31T00:06:42;100942.97;;;4.35;67.39
41596;BME280;27283;52.504;13.358;2023-01-31T00:09:21;100950.13;;;4.34;68.61
41596;BME280;27283;52.504;13.358;2023-01-31T00:11:58;100942.22;;;3.87;70.15
41596;BME280;27283;52.504;13.358;2023-01-31T00:14:46;100949.28;;;4.22;69.46
41596;BME280;27283;52.504;13.358;2023-01-31T00:17:28;100943.81;;;4.24;68.99
41596;BME280;27283;52.504;13.358;2023-01-31T00:22:56;100964.44;;;3.86;70.88
41596;BME280;27283;52.504;13.358;2023-01-31T00:25:41;100964.91;;;3.80;70.55
41596;BME280;27283;52.504;13.358;2023-01-31T00:28:15;100969.25;;;3.70;70.63
41596;BME280;27283;52.504;13.358;2023-01-31T00:30:46;100982.22;;;3.86;70.25
41596;BME280;27283;52.504;13.358;2023-01-31T00:33:22;100993.19;;;4.28;68.60
41596;BME280;27283;52.504;13.358;2023-01-31T00:35:58;101000.97;;;4.54;67.96
41596;BME280;27283;52.504;13.358;2023-01-31T00:38:31;100996.63;;;4.41;68.08
41596;BME280;27283;52.504;13.358;2023-01-31T00:41:11;101000.34;;;4.28;68.73
41596;BME280;27283;52.504;13.358;2023-01-31T00:43:47;101005.91;;;4.36;68.17
41596;BME280;27283;52.504;13.358;2023-01-31T00:46:20;101003.41;;;3.87;69.85
41596;BME280;27283;52.504;13.358;2023-01-31T00:48:55;100998.44;;;3.83;70.00
41596;BME280;27283;52.504;13.358;2023-01-31T00:51:30;101003.50;;;4.33;68.39
41596;BME280;27283;52.504;13.358;2023-01-31T00:54:05;101014.13;;;4.21;68.74
41596;BME280;27283;52.504;13.358;2023-01-31T00:56:38;101014.16;;;4.44;67.89
41596;BME280;27283;52.504;13.358;2023-01-31T00:59:14;101018.00;;;4.17;68.96
41596;BME280;27283;52.504;13.358;2023-01-31T01:01:47;101028.63;;;4.17;68.61
41596;BME280;27283;52.504;13.358;2023-01-31T01:04:18;101022.34;;;4.18;68.80
41596;BME280;27283;52.504;13.358;2023-01-31T01:06:51;101036.53;;;4.53;68.14
41596;BME280;27283;52.504;13.358;2023-01-31T01:09:23;101028.66;;;4.29;68.74
41596;BME280;27283;52.504;13.358;2023-01-31T01:11:55;101045.38;;;4.31;68.89
41596;BME280;27283;52.504;13.358;2023-01-31T01:14:36;101049.72;;;4.32;68.57
41596;BME280;27283;52.504;13.358;2023-01-31T01:17:09;101040.16;;;4.40;67.92
41596;BME280;27283;52.504;13.358;2023-01-31T01:19:40;101045.88;;;4.58;67.17
41596;BME280;27283;52.504;13.358;2023-01-31T01:22:12;101057.38;;;4.48;67.59
41596;BME280;27283;52.504;13.358;2023-01-31T01:24:44;101055.34;;;4.74;66.96
41596;BME280;27283;52.504;13.358;2023-01-31T01:27:16;101054.84;;;5.03;66.08
41596;BME280;27283;52.504;13.358;2023-01-31T01:29:50;101048.69;;;4.68;66.65
41596;BME280;27283;52.504;13.358;2023-01-31T01:32:22;101057.75;;;4.66;67.05
41596;BME280;27283;52.504;13.358;2023-01-31T01:34:55;101061.66;;;4.73;66.61
41596;BME280;27283;52.504;13.358;2023-01-31T01:37:27;101060.91;;;4.82;66.06
41596;BME280;27283;52.504;13.358;2023-01-31T01:39:59;101059.69;;;5.31;64.85
41596;BME280;27283;52.504;13.358;2023-01-31T01:42:34;101063.59;;;4.82;66.06
41596;BME280;27283;52.504;13.358;2023-01-31T01:45:13;101056.44;;;4.83;66.09
41596;BME280;27283;52.504;13.358;2023-01-31T01:47:51;101062.38;;;4.97;65.69
41596;BME280;27283;52.504;13.358;2023-01-31T01:50:27;101078.56;;;4.49;68.27
41596;BME280;27283;52.504;13.358;2023-01-31T01:53:03;101070.84;;;4.69;67.57
41596;BME280;27283;52.504;13.358;2023-01-31T01:55:42;101080.78;;;5.12;66.01
41596;BME280;27283;52.504;13.358;2023-01-31T01:58:19;101096.28;;;5.18;65.06
41596;BME280;27283;52.504;13.358;2023-01-31T02:00:55;101091.63;;;4.52;67.38
41596;BME280;27283;52.504;13.358;2023-01-31T02:03:29;101108.00;;;4.59;67.71
41596;BME280;27283;52.504;13.358;2023-01-31T02:06:03;101101.81;;;4.58;67.93
41596;BME280;27283;52.504;13.358;2023-01-31T02:08:38;101101.09;;;4.56;67.48
41596;BME280;27283;52.504;13.358;2023-01-31T02:11:17;101117.16;;;4.43;69.20
41596;BME280;27283;52.504;13.358;2023-01-31T02:13:59;101109.59;;;4.84;67.60
41596;BME280;27283;52.504;13.358;2023-01-31T02:16:34;101115.41;;;5.01;66.72
41596;BME280;27283;52.504;13.358;2023-01-31T02:19:11;101123.16;;;4.81;67.05
41596;BME280;27283;52.504;13.358;2023-01-31T02:22:03;101126.66;;;4.59;68.79
41596;BME280;27283;52.504;13.358;2023-01-31T02:28:33;101141.25;;;5.23;66.92
41596;BME280;27283;52.504;13.358;2023-01-31T02:34:22;101145.59;;;4.90;66.93
41596;BME280;27283;52.504;13.358;2023-01-31T02:37:05;101154.28;;;4.81;66.41
41596;BME280;27283;52.504;13.358;2023-01-31T02:39:51;101161.09;;;4.38;68.90
41596;BME280;27283;52.504;13.358;2023-01-31T02:42:36;101157.75;;;4.58;67.92
41596;BME280;27283;52.504;13.358;2023-01-31T02:45:24;101161.78;;;4.75;67.09
41596;BME280;27283;52.504;13.358;2023-01-31T02:48:08;101163.50;;;4.99;66.31
41596;BME280;27283;52.504;13.358;2023-01-31T02:50:54;101162.06;;;4.95;65.74
41596;BME280;27283;52.504;13.358;2023-01-31T02:53:33;101155.88;;;4.83;67.06
41596;BME280;27283;52.504;13.358;2023-01-31T02:56:10;101151.38;;;4.95;66.89
41596;BME280;27283;52.504;13.358;2023-01-31T02:58:53;101159.16;;;4.40;68.43
41596;BME280;27283;52.504;13.358;2023-01-31T03:01:30;101165.97;;;4.55;68.00
41596;BME280;27283;52.504;13.358;2023-01-31T03:04:09;101153.63;;;4.19;69.58
41596;BME280;27283;52.504;13.358;2023-01-31T03:06:58;101154.41;;;3.60;71.57
41596;BME280;27283;52.504;13.358;2023-01-31T03:09:38;101159.06;;;4.17;70.07
41596;BME280;27283;52.504;13.358;2023-01-31T03:12:23;101138.47;;;4.08;70.64
41596;BME280;27283;52.504;13.358;2023-01-31T03:15:06;101148.06;;;4.22;70.29
41596;BME280;27283;52.504;13.358;2023-01-31T03:17:50;101145.41;;;4.22;70.01
41596;BME280;27283;52.504;13.358;2023-01-31T03:20:29;101151.69;;;3.97;70.83
41596;BME280;27283;52.504;13.358;2023-01-31T03:23:10;101154.56;;;3.94;71.36
41596;BME280;27283;52.504;13.358;2023-01-31T03:25:43;101147.84;;;3.77;72.14
41596;BME280;27283;52.504;13.358;2023-01-31T03:28:20;101149.66;;;3.76;71.54
41596;BME280;27283;52.504;13.358;2023-01-31T03:30:57;101154.44;;;3.21;73.67
41596;BME280;27283;52.504;13.358;2023-01-31T03:33:32;101170.91;;;3.39;73.85
41596;BME280;27283;52.504;13.358;2023-01-31T03:36:16;101171.06;;;3.99;72.15
41596;BME280;27283;52.504;13.358;2023-01-31T03:39:00;101169.53;;;4.07;71.20
41596;BME280;27283;52.504;13.358;2023-01-31T03:41:44;101187.50;;;3.80;72.29
41596;BME280;27283;52.504;13.358;2023-01-31T03:44:25;101174.72;;;3.85;72.02
41596;BME280;27283;52.504;13.358;2023-01-31T03:47:05;101180.44;;;3.67;72.60
41596;BME280;27283;52.504;13.358;2023-01-31T03:49:41;101196.66;;;3.88;71.84
41596;BME280;27283;52.504;13.358;2023-01-31T03:52:18;101194.72;;;3.90;71.97
41596;BME280;27283;52.504;13.358;2023-01-31T03:54:58;101188.31;;;3.93;71.49
41596;BME280;27283;52.504;13.358;2023-01-31T03:57:35;101194.72;;;3.41;73.92
41596;BME280;27283;52.504;13.358;2023-01-31T04:00:12;101193.63;;;3.56;73.17
41596;BME280;27283;52.504;13.358;2023-01-31T04:02:48;101204.97;;;3.84;72.74
41596;BME280;27283;52.504;13.358;2023-01-31T04:05:23;101204.69;;;3.63;74.01
41596;BME280;27283;52.504;13.358;2023-01-31T04:08:00;101212.06;;;4.20;71.36
41596;BME280;27283;52.504;13.358;2023-01-31T04:10:35;101199.53;;;3.85;72.03
41596;BME280;27283;52.504;13.358;2023-01-31T04:13:07;101203.31;;;3.57;73.57
41596;BME280;27283;52.504;13.358;2023-01-31T04:15:39;101195.50;;;3.80;72.68
41596;BME280;27283;52.504;13.358;2023-01-31T04:18:12;101198.63;;;3.98;72.11
41596;BME280;27283;52.504;13.358;2023-01-31T04:20:44;101194.44;;;3.82;72.90
41596;BME280;27283;52.504;13.358;2023-01-31T04:23:16;101204.75;;;3.87;72.61
41596;BME280;27283;52.504;13.358;2023-01-31T04:25:51;101204.41;;;3.29;75.64
41596;BME280;27283;52.504;13.358;2023-01-31T04:28:23;101205.13;;;3.94;72.68
41596;BME280;27283;52.504;13.358;2023-01-31T04:30:56;101212.91;;;3.47;74.46
41596;BME280;27283;52.504;13.358;2023-01-31T04:33:28;101207.09;;;3.16;75.78
41596;BME280;27283;52.504;13.358;2023-01-31T04:36:00;101204.66;;;3.13;76.49
41596;BME280;27283;52.504;13.358;2023-01-31T04:38:32;101211.88;;;2.98;77.43
41596;BME280;27283;52.504;13.358;2023-01-31T04:41:07;101216.44;;;3.09;77.43
41596;BME280;27283;52.504;13.358;2023-01-31T04:43:39;101222.38;;;3.12;76.99
41596;BME280;27283;52.504;13.358;2023-01-31T04:46:11;101235.22;;;3.70;75.26
41596;BME280;27283;52.504;13.358;2023-01-31T04:48:43;101241.19;;;3.35;76.68
41596;BME280;27283;52.504;13.358;2023-01-31T04:51:15;101230.31;;;3.64;74.75
41596;BME280;27283;52.504;13.358;2023-01-31T04:53:47;101245.78;;;3.46;75.89
41596;BME280;27283;52.504;13.358;2023-01-31T04:56:22;101248.00;;;3.39;76.21
41596;BME280;27283;52.504;13.358;2023-01-31T04:58:54;101237.13;;;3.68;75.22
41596;BME280;27283;52.504;13.358;2023-01-31T05:01:26;101251.25;;;3.81;74.72
41596;BME280;27283;52.504;13.358;2023-01-31T05:03:59;101252.59;;;3.11;77.19
41596;BME280;27283;52.504;13.358;2023-01-31T05:06:31;101245.97;;;3.04;77.94
41596;BME280;27283;52.504;13.358;2023-01-31T05:09:04;101247.69;;;3.57;76.45
41596;BME280;27283;52.504;13.358;2023-01-31T05:11:38;101241.66;;;3.79;75.11
41596;BME280;27283;52.504;13.358;2023-01-31T05:14:11;101235.41;;;3.80;75.08
41596;BME280;27283;52.504;13.358;2023-01-31T05:16:43;101236.03;;;4.20;74.01
41596;BME280;27283;52.504;13.358;2023-01-31T05:19:15;101238.28;;;4.62;72.08
41596;BME280;27283;52.504;13.358;2023-01-31T05:21:47;101245.13;;;3.42;75.75
41596;BME280;27283;52.504;13.358;2023-01-31T05:24:34;101237.06;;;3.31;77.36
41596;BME280;27283;52.504;13.358;2023-01-31T05:27:09;101245.22;;;3.41;77.34
41596;BME280;27283;52.504;13.358;2023-01-31T05:29:41;101237.44;;;3.76;75.95
41596;BME280;27283;52.504;13.358;2023-01-31T05:32:14;101232.44;;;3.71;76.19
41596;BME280;27283;52.504;13.358;2023-01-31T05:34:47;101238.41;;;3.62;76.47
41596;BME280;27283;52.504;13.358;2023-01-31T05:37:19;101242.31;;;3.82;75.85
41596;BME280;27283;52.504;13.358;2023-01-31T05:39:51;101252.84;;;3.71;76.64
41596;BME280;27283;52.504;13.358;2023-01-31T05:42:26;101255.44;;;3.60;77.11
41596;BME280;27283;52.504;13.358;2023-01-31T05:44:59;101248.69;;;3.80;76.45
41596;BME280;27283;52.504;13.358;2023-01-31T05:47:31;101257.00;;;3.62;76.97
41596;BME280;27283;52.504;13.358;2023-01-31T05:50:04;101256.69;;;4.17;75.45
41596;BME280;27283;52.504;13.358;2023-01-31T05:52:36;101250.00;;;4.35;73.97
41596;BME280;27283;52.504;13.358;2023-01-31T05:55:08;101258.81;;;4.49;74.23
41596;BME280;27283;52.504;13.358;2023-01-31T05:57:43;101264.53;;;3.94;75.84
41596;BME280;27283;52.504;13.358;2023-01-31T06:00:16;101261.75;;;3.96;76.03
41596;BME280;27283;52.504;13.358;2023-01-31T06:02:48;101265.22;;;4.09;76.10
41596;BME280;27283;52.504;13.358;2023-01-31T06:05:20;101264.97;;;4.49;74.90
41596;BME280;27283;52.504;13.358;2023-01-31T06:07:52;101268.22;;;4.04;76.47
41596;BME280;27283;52.504;13.358;2023-01-31T06:10:25;101262.31;;;3.75;77.47
41596;BME280;27283;52.504;13.358;2023-01-31T06:12:59;101262.44;;;3.73;77.70
41596;BME280;27283;52.504;13.358;2023-01-31T06:15:32;101258.31;;;4.06;76.97
41596;BME280;27283;52.504;13.358;2023-01-31T06:18:05;101267.13;;;4.20;75.95
41596;BME280;27283;52.504;13.358;2023-01-31T06:20:37;101264.72;;;4.28;76.21
41596;BME280;27283;52.504;13.358;2023-01-31T06:23:09;101273.28;;;4.44;75.51
41596;BME280;27283;52.504;13.358;2023-01-31T06:25:41;101278.09;;;4.15;76.38
41596;BME280;27283;52.504;13.358;2023-01-31T06:28:15;101284.16;;;4.17;76.04
41596;BME280;27283;52.504;13.358;2023-01-31T06:30:48;101290.06;;;4.34;75.91
41596;BME280;27283;52.504;13.358;2023-01-31T06:33:20;101276.19;;;4.41;75.47
41596;BME280;27283;52.504;13.358;2023-01-31T06:36:12;101291.19;;;4.18;76.16
41596;BME280;27283;52.504;13.358;2023-01-31T06:38:50;101284.94;;;3.94;77.17
41596;BME280;27283;52.504;13.358;2023-01-31T06:41:22;101303.28;;;4.22;77.06
41596;BME280;27283;52.504;13.358;2023-01-31T06:43:56;101299.97;;;4.32;76.30
41596;BME280;27283;52.504;13.358;2023-01-31T06:46:29;101303.66;;;4.66;75.44
41596;BME280;27283;52.504;13.358;2023-01-31T06:49:03;101292.31;;;4.27;76.90
41596;BME280;27283;52.504;13.358;2023-01-31T06:51:35;101286.75;;;4.30;76.44
41596;BME280;27283;52.504;13.358;2023-01-31T06:54:07;101290.81;;;4.60;75.89
41596;BME280;27283;52.504;13.358;2023-01-31T06:56:39;101300.41;;;4.98;74.20
41596;BME280;27283;52.504;13.358;2023-01-31T06:59:14;101287.22;;;4.48;76.00
41596;BME280;27283;52.504;13.358;2023-01-31T07:01:48;101299.41;;;4.88;76.14
41596;BME280;27283;52.504;13.358;2023-01-31T07:04:20;101301.88;;;4.42;76.87
41596;BME280;27283;52.504;13.358;2023-01-31T07:06:53;101299.69;;;4.72;76.27
41596;BME280;27283;52.504;13.358;2023-01-31T07:09:25;101296.13;;;4.60;77.35
41596;BME280;27283;52.504;13.358;2023-01-31T07:12:13;101301.56;;;3.97;80.44
41596;BME280;27283;52.504;13.358;2023-01-31T07:14:48;101295.72;;;4.29;79.37
41596;BME280;27283;52.504;13.358;2023-01-31T07:17:21;101287.66;;;3.81;81.30
41596;BME280;27283;52.504;13.358;2023-01-31T07:19:53;101277.22;;;4.52;79.06
41596;BME280;27283;52.504;13.358;2023-01-31T07:22:26;101267.69;;;4.36;79.91
41596;BME280;27283;52.504;13.358;2023-01-31T07:24:59;101277.91;;;4.78;77.87
41596;BME280;27283;52.504;13.358;2023-01-31T07:27:31;101283.50;;;5.10;76.67
41596;BME280;27283;52.504;13.358;2023-01-31T07:30:08;101285.94;;;4.54;78.85
41596;BME280;27283;52.504;13.358;2023-01-31T07:32:41;101282.75;;;4.24;80.20
41596;BME280;27283;52.504;13.358;2023-01-31T07:35:13;101291.94;;;4.44;80.15
41596;BME280;27283;52.504;13.358;2023-01-31T07:37:46;101284.41;;;4.63;79.56
41596;BME280;27283;52.504;13.358;2023-01-31T07:40:19;101281.13;;;4.59;79.08
41596;BME280;27283;52.504;13.358;2023-01-31T07:42:56;101283.94;;;4.69;78.73
41596;BME280;27283;52.504;13.358;2023-01-31T07:45:31;101284.97;;;4.55;80.00
41596;BME280;27283;52.504;13.358;2023-01-31T07:48:05;101279.22;;;4.72;79.11
41596;BME280;27283;52.504;13.358;2023-01-31T07:50:37;101278.25;;;4.38;80.05
41596;BME280;27283;52.504;13.358;2023-01-31T07:53:10;101274.56;;;4.52;79.97
41596;BME280;27283;52.504;13.358;2023-01-31T07:55:42;101281.75;;;4.63;79.49
41596;BME280;27283;52.504;13.358;2023-01-31T07:58:16;101276.09;;;4.78;78.76
41596;BME280;27283;52.504;13.358;2023-01-31T08:00:52;101274.38;;;4.42;79.84
41596;BME280;27283;52.504;13.358;2023-01-31T08:03:37;101273.69;;;4.51;80.22
41596;BME280;27283;52.504;13.358;2023-01-31T08:06:11;101272.38;;;4.81;79.10
41596;BME280;27283;52.504;13.358;2023-01-31T08:08:44;101280.25;;;4.58;79.71
41596;BME280;27283;52.504;13.358;2023-01-31T08:11:16;101273.06;;;4.72;79.49
41596;BME280;27283;52.504;13.358;2023-01-31T08:13:49;101276.06;;;4.43;79.97
41596;BME280;27283;52.504;13.358;2023-01-31T08:16:24;101267.25;;;5.13;78.68
41596;BME280;27283;52.504;13.358;2023-01-31T08:18:58;101269.63;;;5.63;75.82
41596;BME280;27283;52.504;13.358;2023-01-31T08:21:31;101278.03;;;4.76;79.18
41596;BME280;27283;52.504;13.358;2023-01-31T08:24:04;101273.84;;;4.96;79.50
41596;BME280;27283;52.504;13.358;2023-01-31T08:26:36;101269.84;;;5.38;77.97
41596;BME280;27283;52.504;13.358;2023-01-31T08:29:09;101265.59;;;4.88;79.90
41596;BME280;27283;52.504;13.358;2023-01-31T08:31:44;101261.50;;;5.42;77.77
41596;BME280;27283;52.504;13.358;2023-01-31T08:34:20;101252.59;;;5.08;79.25
41596;BME280;27283;52.504;13.358;2023-01-31T08:36:52;101253.16;;;5.00;80.10
41596;BME280;27283;52.504;13.358;2023-01-31T08:39:25;101247.13;;;4.38;82.24
41596;BME280;27283;52.504;13.358;2023-01-31T08:41:57;101255.31;;;4.84;81.66
41596;BME280;27283;52.504;13.358;2023-01-31T08:44:30;101255.38;;;4.47;83.18
41596;BME280;27283;52.504;13.358;2023-01-31T08:47:08;101255.19;;;4.96;81.93
41596;BME280;27283;52.504;13.358;2023-01-31T08:49:41;101249.53;;;4.66;82.14
41596;BME280;27283;52.504;13.358;2023-01-31T08:52:14;101247.97;;;4.99;81.46
41596;BME280;27283;52.504;13.358;2023-01-31T08:54:47;101250.19;;;5.39;78.63
41596;BME280;27283;52.504;13.358;2023-01-31T08:57:19;101246.78;;;5.14;79.42
41596;BME280;27283;52.504;13.358;2023-01-31T08:59:52;101244.41;;;5.56;78.39
41596;BME280;27283;52.504;13.358;2023-01-31T09:02:26;101246.34;;;5.54;77.32
41596;BME280;27283;52.504;13.358;2023-01-31T09:05:01;101245.97;;;5.36;78.84
41596;BME280;27283;52.504;13.358;2023-01-31T09:07:33;101248.63;;;5.70;77.01
41596;BME280;27283;52.504;13.358;2023-01-31T09:10:09;101245.00;;;5.60;76.97
41596;BME280;27283;52.504;13.358;2023-01-31T09:12:41;101234.94;;;5.63;76.09
41596;BME280;27283;52.504;13.358;2023-01-31T09:15:14;101232.38;;;5.17;78.30
41596;BME280;27283;52.504;13.358;2023-01-31T09:17:49;101223.19;;;5.55;76.99
41596;BME280;27283;52.504;13.358;2023-01-31T09:20:22;101211.06;;;5.62;76.61
41596;BME280;27283;52.504;13.358;2023-01-31T09:22:54;101217.25;;;5.74;75.67
41596;BME280;27283;52.504;13.358;2023-01-31T09:25:27;101224.88;;;5.44;76.05
41596;BME280;27283;52.504;13.358;2023-01-31T09:28:14;101215.88;;;5.79;75.67
41596;BME280;27283;52.504;13.358;2023-01-31T09:30:47;101220.63;;;5.76;75.49
41596;BME280;27283;52.504;13.358;2023-01-31T09:33:24;101213.56;;;5.86;75.21
41596;BME280;27283;52.504;13.358;2023-01-31T09:35:59;101206.66;;;5.83;74.60
41596;BME280;27283;52.504;13.358;2023-01-31T09:38:32;101217.91;;;6.10;74.24
41596;BME280;27283;52.504;13.358;2023-01-31T09:41:10;101205.59;;;6.30;73.45
41596;BME280;27283;52.504;13.358;2023-01-31T09:43:47;101210.44;;;6.36;72.67
41596;BME280;27283;52.504;13.358;2023-01-31T09:46:25;101200.34;;;6.39;72.17
41596;BME280;27283;52.504;13.358;2023-01-31T09:49:05;101201.56;;;6.35;71.64
41596;BME280;27283;52.504;13.358;2023-01-31T09:51:40;101193.25;;;6.50;71.93
41596;BME280;27283;52.504;13.358;2023-01-31T09:54:18;101193.81;;;6.32;71.69
41596;BME280;27283;52.504;13.358;2023-01-31T09:56:59;101193.53;;;6.68;71.91
41596;BME280;27283;52.504;13.358;2023-01-31T09:59:43;101184.47;;;7.01;69.49
41596;BME280;27283;52.504;13.358;2023-01-31T10:02:46;101175.16;;;7.26;68.63
41596;BME280;27283;52.504;13.358;2023-01-31T10:05:32;101174.13;;;6.66;70.22
41596;BME280;27283;52.504;13.358;2023-01-31T10:08:17;101178.31;;;6.47;70.84
41596;BME280;27283;52.504;13.358;2023-01-31T10:10:53;101169.22;;;6.50;71.03
41596;BME280;27283;52.504;13.358;2023-01-31T10:13:31;101155.25;;;6.25;71.46
41596;BME280;27283;52.504;13.358;2023-01-31T10:16:14;101159.97;;;6.75;70.77
41596;BME280;27283;52.504;13.358;2023-01-31T10:18:53;101157.41;;;6.31;72.06
41596;BME280;27283;52.504;13.358;2023-01-31T10:21:31;101139.06;;;6.06;72.44
41596;BME280;27283;52.504;13.358;2023-01-31T10:24:12;101146.75;;;6.52;71.13
41596;BME280;27283;52.504;13.358;2023-01-31T10:26:50;101144.47;;;6.48;71.31
41596;BME280;27283;52.504;13.358;2023-01-31T10:29:29;101138.09;;;6.91;69.61
41596;BME280;27283;52.504;13.358;2023-01-31T10:32:07;101144.69;;;6.24;72.40
41596;BME280;27283;52.504;13.358;2023-01-31T10:34:48;101137.56;;;6.13;74.35
41596;BME280;27283;52.504;13.358;2023-01-31T10:37:32;101125.63;;;6.28;75.09
41596;BME280;27283;52.504;13.358;2023-01-31T10:40:13;101104.50;;;6.67;74.16
41596;BME280;27283;52.504;13.358;2023-01-31T10:42:50;101107.63;;;7.03;72.81
41596;BME280;27283;52.504;13.358;2023-01-31T10:45:26;101114.78;;;6.09;76.03
41596;BME280;27283;52.504;13.358;2023-01-31T10:48:12;101106.59;;;6.43;74.36
41596;BME280;27283;52.504;13.358;2023-01-31T10:51:00;101103.88;;;6.33;75.82
41596;BME280;27283;52.504;13.358;2023-01-31T10:53:53;101102.28;;;6.72;73.62
41596;BME280;27283;52.504;13.358;2023-01-31T10:56:32;101100.28;;;6.96;71.66
41596;BME280;27283;52.504;13.358;2023-01-31T10:59:11;101094.03;;;6.85;72.08
41596;BME280;27283;52.504;13.358;2023-01-31T11:01:47;101079.56;;;7.28;71.06
41596;BME280;27283;52.504;13.358;2023-01-31T11:04:24;101079.03;;;7.35;70.63
41596;BME280;27283;52.504;13.358;2023-01-31T11:06:59;101061.38;;;6.82;72.08
41596;BME280;27283;52.504;13.358;2023-01-31T11:09:39;101066.38;;;6.96;69.94
41596;BME280;27283;52.504;13.358;2023-01-31T11:12:13;101058.19;;;6.88;71.44
41596;BME280;27283;52.504;13.358;2023-01-31T11:14:46;101046.00;;;7.05;70.88
41596;BME280;27283;52.504;13.358;2023-01-31T11:17:35;101053.28;;;6.93;70.20
41596;BME280;27283;52.504;13.358;2023-01-31T11:20:20;101048.75;;;6.63;72.09
41596;BME280;27283;52.504;13.358;2023-01-31T11:22:54;101036.97;;;6.96;70.44
41596;BME280;27283;52.504;13.358;2023-01-31T11:25:31;101027.75;;;6.48;72.57
41596;BME280;27283;52.504;13.358;2023-01-31T11:28:18;101017.09;;;6.58;74.03
41596;BME280;27283;52.504;13.358;2023-01-31T11:30:53;101014.09;;;7.13;72.56
41596;BME280;27283;52.504;13.358;2023-01-31T11:33:42;101004.44;;;6.81;74.09
41596;BME280;27283;52.504;13.358;2023-01-31T11:36:18;100994.03;;;6.88;74.01
41596;BME280;27283;52.504;13.358;2023-01-31T11:38:54;100982.34;;;6.89;74.27
41596;BME280;27283;52.504;13.358;2023-01-31T11:41:31;100997.94;;;7.34;73.30
41596;BME280;27283;52.504;13.358;2023-01-31T11:44:09;100980.91;;;7.35;71.81
41596;BME280;27283;52.504;13.358;2023-01-31T11:46:47;100979.47;;;7.21;72.34
41596;BME280;27283;52.504;13.358;2023-01-31T11:49:27;100977.38;;;7.25;72.00
41596;BME280;27283;52.504;13.358;2023-01-31T11:52:02;100969.78;;;7.79;71.45
41596;BME280;27283;52.504;13.358;2023-01-31T11:54:47;100967.81;;;7.42;71.30
41596;BME280;27283;52.504;13.358;2023-01-31T11:57:26;100965.56;;;7.76;70.13
41596;BME280;27283;52.504;13.358;2023-01-31T12:00:03;100957.75;;;8.03;68.86
41596;BME280;27283;52.504;13.358;2023-01-31T12:02:38;100948.59;;;7.95;68.95
41596;BME280;27283;52.504;13.358;2023-01-31T12:05:15;100929.81;;;8.15;67.62
41596;BME280;27283;52.504;13.358;2023-01-31T12:07:50;100917.56;;;8.12;68.61
41596;BME280;27283;52.504;13.358;2023-01-31T12:10:32;100913.09;;;7.93;70.09
41596;BME280;27283;52.504;13.358;2023-01-31T12:13:15;100900.00;;;7.90;71.34
41596;BME280;27283;52.504;13.358;2023-01-31T12:15:55;100894.44;;;7.64;71.57
41596;BME280;27283;52.504;13.358;2023-01-31T12:18:42;100889.09;;;7.44;72.60
41596;BME280;27283;52.504;13.358;2023-01-31T12:21:30;100879.19;;;7.74;73.53
41596;BME280;27283;52.504;13.358;2023-01-31T12:24:15;100888.66;;;7.69;73.06
41596;BME280;27283;52.504;13.358;2023-01-31T12:26:53;100876.28;;;7.28;74.69
41596;BME280;27283;52.504;13.358;2023-01-31T12:29:54;100862.34;;;7.35;75.07
41596;BME280;27283;52.504;13.358;2023-01-31T12:32:52;100860.66;;;7.24;74.26
41596;BME280;27283;52.504;13.358;2023-01-31T12:35:47;100860.53;;;7.25;75.54
41596;BME280;27283;52.504;13.358;2023-01-31T12:38:45;100849.94;;;7.53;75.74
41596;BME280;27283;52.504;13.358;2023-01-31T12:41:27;100841.91;;;7.63;75.17
41596;BME280;27283;52.504;13.358;2023-01-31T12:44:44;100836.28;;;7.47;75.80
41596;BME280;27283;52.504;13.358;2023-01-31T12:47:33;100840.38;;;7.41;76.32
41596;BME280;27283;52.504;13.358;2023-01-31T12:50:33;100834.72;;;7.54;75.03
41596;BME280;27283;52.504;13.358;2023-01-31T12:53:23;100831.53;;;7.01;78.71
41596;BME280;27283;52.504;13.358;2023-01-31T12:56:10;100812.56;;;6.95;79.15
41596;BME280;27283;52.504;13.358;2023-01-31T12:58:55;100814.78;;;7.09;78.55
41596;BME280;27283;52.504;13.358;2023-01-31T13:01:49;100808.44;;;6.81;80.18
41596;BME280;27283;52.504;13.358;2023-01-31T13:04:32;100809.31;;;7.01;79.50
41596;BME280;27283;52.504;13.358;2023-01-31T13:07:13;100805.38;;;7.15;79.11
41596;BME280;27283;52.504;13.358;2023-01-31T13:09:49;100807.03;;;7.35;78.56
41596;BME280;27283;52.504;13.358;2023-01-31T13:12:29;100804.91;;;7.29;78.85
41596;BME280;27283;52.504;13.358;2023-01-31T13:15:06;100794.75;;;7.42;79.01
41596;BME280;27283;52.504;13.358;2023-01-31T13:17:53;100803.97;;;7.01;81.09
41596;BME280;27283;52.504;13.358;2023-01-31T13:20:32;100802.97;;;6.82;81.73
41596;BME280;27283;52.504;13.358;2023-01-31T13:23:11;100796.19;;;6.49;83.14
41596;BME280;27283;52.504;13.358;2023-01-31T13:25:50;100787.47;;;6.56;82.40
41596;BME280;27283;52.504;13.358;2023-01-31T13:28:25;100777.59;;;6.28;82.91
41596;BME280;27283;52.504;13.358;2023-01-31T13:31:04;100784.69;;;6.68;82.78
41596;BME280;27283;52.504;13.358;2023-01-31T13:33:45;100778.50;;;6.67;82.90
41596;BME280;27283;52.504;13.358;2023-01-31T13:36:24;100779.91;;;6.71;81.52
41596;BME280;27283;52.504;13.358;2023-01-31T13:39:07;100776.78;;;6.56;82.96
41596;BME280;27283;52.504;13.358;2023-01-31T13:41:43;100782.00;;;6.58;82.64
41596;BME280;27283;52.504;13.358;2023-01-31T13:44:16;100784.06;;;6.25;83.53
41596;BME280;27283;52.504;13.358;2023-01-31T13:46:51;100774.13;;;6.56;84.15
41596;BME280;27283;52.504;13.358;2023-01-31T13:49:32;100776.38;;;6.42;83.20
41596;BME280;27283;52.504;13.358;2023-01-31T13:52:11;100770.59;;;6.27;83.88